createdAt,value
2022-10-19T00:01:22.820Z,94.85
2022-10-19T00:03:53.586Z,94.90
2022-10-19T00:06:26.267Z,100.72
2022-10-19T00:08:57.371Z,99.32
2022-10-19T00:11:26.328Z,97.82
2022-10-19T00:13:56.538Z,97.07
2022-10-19T00:16:27.289Z,98.88
2022-10-19T00:19:00.114Z,101.55
2022-10-19T00:21:28.843Z,98.50
2022-10-19T00:23:57.134Z,104.45
2022-10-19T00:26:25.892Z,94.28
2022-10-19T00:28:55.518Z,98.35
2022-10-19T00:31:24.993Z,100.10
2022-10-19T00:33:55.732Z,95.63
2022-10-19T00:36:26.037Z,99.03
2022-10-19T00:38:55.645Z,91.65
2022-10-19T00:41:27.061Z,98.32
2022-10-19T00:44:07.616Z,100.32
2022-10-19T00:46:38.690Z,98.97
2022-10-19T00:49:20.454Z,102.20
2022-10-19T00:52:01.756Z,102.68
2022-10-19T00:54:32.486Z,101.45
2022-10-19T00:57:01.007Z,106.38
2022-10-19T00:59:31.861Z,98.60
2022-10-19T01:02:05.158Z,97.30
2022-10-19T01:04:36.370Z,100.28
2022-10-19T01:07:06.932Z,98.07
2022-10-19T01:09:35.370Z,95.63
2022-10-19T01:12:22.440Z,100.05
2022-10-19T01:14:53.365Z,98.70
2022-10-19T01:17:34.642Z,96.22
2022-10-19T01:20:21.865Z,95.35
2022-10-19T01:23:16.906Z,96.57
2022-10-19T01:26:03.742Z,93.20
2022-10-19T01:28:44.091Z,103.75
2022-10-19T01:31:21.519Z,103.35
2022-10-19T01:33:49.718Z,102.85
2022-10-19T01:36:33.354Z,97.22
2022-10-19T01:39:25.008Z,104.82
2022-10-19T01:42:08.629Z,100.78
2022-10-19T01:47:13.887Z,93.15
2022-10-19T01:49:44.712Z,101.60
2022-10-19T01:52:18.223Z,101.13
2022-10-19T01:54:53.853Z,95.95
2022-10-19T01:57:34.384Z,97.30
2022-10-19T02:00:09.753Z,101.40
2022-10-19T02:02:46.198Z,98.40
2022-10-19T02:05:18.927Z,90.13
2022-10-19T02:07:58.175Z,102.22
2022-10-19T02:10:27.483Z,93.85
2022-10-19T02:12:58.245Z,91.20
2022-10-19T02:15:29.159Z,96.50
2022-10-19T02:18:01.510Z,103.97
2022-10-19T02:20:30.528Z,104.43
2022-10-19T02:22:58.790Z,109.05
2022-10-19T02:25:27.316Z,101.68
2022-10-19T02:27:55.543Z,109.75
2022-10-19T02:30:23.770Z,101.65
2022-10-19T02:32:52.318Z,96.65
2022-10-19T02:35:20.658Z,103.88
2022-10-19T02:37:48.990Z,103.70
2022-10-19T02:40:17.321Z,107.18
2022-10-19T02:42:55.426Z,99.82
2022-10-19T02:45:35.478Z,113.57
2022-10-19T02:48:11.830Z,102.65
2022-10-19T02:50:49.954Z,99.63
2022-10-19T02:53:18.842Z,106.90
2022-10-19T02:55:50.382Z,103.32
2022-10-19T02:58:18.635Z,102.85
2022-10-19T03:00:46.870Z,98.65
2022-10-19T03:03:15.112Z,96.43
2022-10-19T03:05:43.302Z,107.05
2022-10-19T03:08:11.595Z,93.60
2022-10-19T03:10:39.788Z,102.38
2022-10-19T03:13:10.925Z,100.88
2022-10-19T03:15:39.085Z,96.88
2022-10-19T03:18:07.295Z,97.15
2022-10-19T03:20:35.535Z,97.63
2022-10-19T03:23:03.688Z,97.68
2022-10-19T03:25:31.813Z,104.00
2022-10-19T03:28:00.059Z,101.50
2022-10-19T03:30:28.439Z,96.88
2022-10-19T03:32:56.576Z,103.13
2022-10-19T03:35:24.775Z,103.93
2022-10-19T03:37:52.950Z,107.22
2022-10-19T03:40:21.081Z,104.95
2022-10-19T03:42:49.236Z,110.88
2022-10-19T03:45:17.382Z,109.20
2022-10-19T03:47:50.505Z,113.13
2022-10-19T03:50:19.035Z,111.82
2022-10-19T03:52:49.422Z,113.13
2022-10-19T03:55:18.146Z,108.97
2022-10-19T03:57:46.304Z,117.13
2022-10-19T04:00:15.063Z,104.03
2022-10-19T04:02:43.243Z,108.53
2022-10-19T04:05:11.455Z,110.13
2022-10-19T04:07:39.698Z,108.88
2022-10-19T04:10:09.446Z,108.38
2022-10-19T04:12:37.775Z,113.07
2022-10-19T04:15:06.307Z,111.63
2022-10-19T04:17:34.707Z,112.45
2022-10-19T04:20:03.190Z,111.68
2022-10-19T04:22:31.338Z,105.72
2022-10-19T04:24:59.508Z,110.28
2022-10-19T04:27:27.632Z,104.28
2022-10-19T04:29:55.817Z,110.53
2022-10-19T04:32:23.966Z,107.35
2022-10-19T04:34:52.131Z,105.18
2022-10-19T04:37:20.277Z,106.72
2022-10-19T04:39:48.392Z,105.65
2022-10-19T04:42:16.577Z,101.35
2022-10-19T04:44:44.759Z,104.22
2022-10-19T04:47:12.936Z,117.28
2022-10-19T04:49:41.089Z,104.90
2022-10-19T04:52:09.282Z,111.90
2022-10-19T04:54:37.496Z,112.43
2022-10-19T04:57:05.694Z,114.78
2022-10-19T04:59:33.917Z,106.10
2022-10-19T05:02:02.079Z,104.40
2022-10-19T05:04:30.267Z,106.68
2022-10-19T05:06:58.418Z,106.90
2022-10-19T05:09:26.702Z,101.70
2022-10-19T05:11:54.856Z,104.40
2022-10-19T05:14:23.152Z,106.82
2022-10-19T05:16:51.345Z,105.75
2022-10-19T05:19:19.454Z,102.43
2022-10-19T05:21:47.622Z,107.90
2022-10-19T05:24:15.767Z,110.28
2022-10-19T05:26:43.918Z,97.88
2022-10-19T05:29:14.036Z,106.63
2022-10-19T05:31:42.433Z,103.93
2022-10-19T05:34:10.753Z,103.38
2022-10-19T05:36:40.822Z,104.90
2022-10-19T05:39:14.336Z,113.18
2022-10-19T05:41:47.242Z,111.07
2022-10-19T05:44:22.715Z,102.28
2022-10-19T05:46:52.101Z,116.63
2022-10-19T05:49:22.144Z,107.80
2022-10-19T05:51:50.443Z,105.45
2022-10-19T05:54:18.925Z,110.45
2022-10-19T05:56:47.510Z,117.32
2022-10-19T05:59:19.083Z,112.20
2022-10-19T06:01:48.245Z,104.65
2022-10-19T06:06:45.989Z,112.35
2022-10-19T06:09:14.283Z,109.45
2022-10-19T06:11:43.597Z,111.75
2022-10-19T06:14:14.919Z,115.85
2022-10-19T06:16:43.285Z,103.68
2022-10-19T06:19:11.399Z,107.13
2022-10-19T06:21:41.961Z,111.95
2022-10-19T06:24:13.284Z,112.65
2022-10-19T06:26:41.816Z,117.57
2022-10-19T06:29:10.424Z,119.25
2022-10-19T06:31:38.594Z,116.53
2022-10-19T06:34:06.885Z,115.72
2022-10-19T06:36:35.478Z,112.95
2022-10-19T06:39:04.122Z,119.55
2022-10-19T06:41:32.883Z,121.20
2022-10-19T06:44:19.200Z,114.32
2022-10-19T06:46:47.454Z,114.05
2022-10-19T06:49:15.774Z,109.55
2022-10-19T06:51:43.959Z,108.57
2022-10-19T06:54:12.135Z,118.00
2022-10-19T06:56:40.366Z,114.05
2022-10-19T06:59:08.577Z,116.30
2022-10-19T07:01:36.716Z,121.63
2022-10-19T07:04:05.106Z,110.78
2022-10-19T07:06:33.234Z,113.60
2022-10-19T07:09:02.712Z,110.20
2022-10-19T07:11:30.975Z,96.88
2022-10-19T07:13:59.246Z,110.88
2022-10-19T07:16:27.421Z,98.35
2022-10-19T07:18:59.074Z,94.22
2022-10-19T07:21:27.455Z,93.88
2022-10-19T07:23:55.670Z,98.53
2022-10-19T07:26:27.579Z,100.93
2022-10-19T07:28:58.607Z,107.15
2022-10-19T07:31:30.599Z,99.80
2022-10-19T07:34:01.600Z,102.50
2022-10-19T07:36:31.572Z,99.57
2022-10-19T07:39:10.444Z,92.25
2022-10-19T07:41:38.979Z,95.43
2022-10-19T07:44:08.246Z,91.50
2022-10-19T07:46:39.133Z,98.55
2022-10-19T07:49:12.024Z,91.78
2022-10-19T07:51:40.605Z,92.82
2022-10-19T07:54:09.294Z,91.25
2022-10-19T07:56:37.754Z,93.25
2022-10-19T07:59:06.181Z,87.65
2022-10-19T08:01:38.696Z,99.47
2022-10-19T08:04:55.372Z,94.43
2022-10-19T08:06:55.203Z,99.07
2022-10-19T08:09:50.760Z,101.55
2022-10-19T08:12:15.086Z,107.13
2022-10-19T08:14:43.804Z,100.18
2022-10-19T08:17:16.668Z,97.05
2022-10-19T08:19:46.039Z,93.05
2022-10-19T08:22:15.301Z,97.65
2022-10-19T08:24:43.493Z,107.65
2022-10-19T08:27:11.671Z,110.10
2022-10-19T08:29:39.836Z,100.60
2022-10-19T08:32:08.053Z,109.47
2022-10-19T08:34:36.195Z,101.15
2022-10-19T08:37:10.490Z,109.65
2022-10-19T08:39:48.392Z,107.20
2022-10-19T08:42:28.992Z,103.00
2022-10-19T08:45:34.594Z,100.95
2022-10-19T08:48:22.644Z,106.57
2022-10-19T08:50:51.191Z,116.40
2022-10-19T08:53:41.599Z,107.47
2022-10-19T08:56:49.334Z,107.85
2022-10-19T08:59:50.077Z,106.75
2022-10-19T09:02:53.878Z,109.20
2022-10-19T09:05:40.776Z,114.32
2022-10-19T09:08:15.380Z,101.50
2022-10-19T09:10:50.501Z,102.45
2022-10-19T09:14:00.466Z,111.10
2022-10-19T09:16:33.021Z,107.35
2022-10-19T09:19:01.374Z,110.93
2022-10-19T09:21:47.855Z,113.90
2022-10-19T09:24:44.455Z,105.95
2022-10-19T09:27:36.431Z,107.00
2022-10-19T09:30:14.462Z,111.15
2022-10-19T09:32:43.111Z,102.20
2022-10-19T09:35:34.945Z,106.93
2022-10-19T09:38:07.624Z,111.53
2022-10-19T09:40:36.417Z,106.72
2022-10-19T09:43:20.100Z,104.00
2022-10-19T09:48:30.411Z,98.00
2022-10-19T09:51:10.776Z,99.28
2022-10-19T09:53:43.953Z,106.13
2022-10-19T09:56:19.935Z,102.93
2022-10-19T09:58:50.458Z,99.40
2022-10-19T10:01:43.198Z,100.10
2022-10-19T10:04:17.654Z,93.67
2022-10-19T10:06:50.033Z,92.32
2022-10-19T10:09:22.732Z,93.63
2022-10-19T10:14:39.740Z,92.60
2022-10-19T10:17:20.644Z,91.95
2022-10-19T10:20:32.412Z,92.25
2022-10-19T10:23:04.042Z,101.18
2022-10-19T10:25:34.883Z,99.18
2022-10-19T10:28:21.028Z,104.03
2022-10-19T10:30:53.629Z,93.78
2022-10-19T10:33:40.748Z,90.97
2022-10-19T10:36:13.342Z,96.28
2022-10-19T10:38:50.605Z,96.07
2022-10-19T10:41:25.444Z,102.68
2022-10-19T10:44:16.385Z,101.55
2022-10-19T10:46:55.476Z,97.63
2022-10-19T10:49:38.143Z,98.20
2022-10-19T10:52:13.369Z,96.18
2022-10-19T10:54:56.920Z,94.38
2022-10-19T10:57:28.337Z,95.75
2022-10-19T11:00:01.275Z,101.20
2022-10-19T11:02:52.897Z,96.13
2022-10-19T11:05:28.577Z,103.70
2022-10-19T11:08:16.694Z,99.63
2022-10-19T11:11:17.172Z,112.18
2022-10-19T11:13:59.876Z,105.55
2022-10-19T11:16:41.313Z,109.85
2022-10-19T11:19:35.036Z,93.05
2022-10-19T11:25:00.120Z,91.22
2022-10-19T11:27:33.822Z,100.43
2022-10-19T11:30:14.567Z,97.18
2022-10-19T11:32:49.139Z,87.30
2022-10-19T11:35:20.094Z,96.95
2022-10-19T11:38:30.269Z,94.45
2022-10-19T11:41:18.826Z,98.10
2022-10-19T11:43:59.169Z,92.63
2022-10-19T11:46:48.607Z,89.70
2022-10-19T11:49:34.906Z,89.93
2022-10-19T11:52:07.518Z,92.43
2022-10-19T11:55:00.342Z,93.85
2022-10-19T11:57:50.467Z,84.50
2022-10-19T12:00:38.019Z,90.60
2022-10-19T12:03:22.631Z,97.18
2022-10-19T12:06:18.497Z,93.43
2022-10-19T12:09:10.471Z,87.82
2022-10-19T12:11:52.180Z,83.90
2022-10-19T12:14:28.016Z,84.90
2022-10-19T12:17:02.004Z,86.65
2022-10-19T12:19:36.996Z,87.55
2022-10-19T12:22:11.237Z,84.20
2022-10-19T12:24:39.373Z,87.22
2022-10-19T12:27:11.251Z,85.75
2022-10-19T12:29:43.972Z,87.93
2022-10-19T12:32:16.637Z,97.82
2022-10-19T12:34:52.915Z,89.70
2022-10-19T12:37:41.716Z,88.75
2022-10-19T12:40:43.470Z,94.30
2022-10-19T12:43:44.332Z,88.55
2022-10-19T12:46:41.061Z,90.13
2022-10-19T12:49:30.131Z,91.97
2022-10-19T12:52:00.122Z,91.10
2022-10-19T12:54:34.420Z,90.18
2022-10-19T12:57:22.683Z,95.30
2022-10-19T13:00:04.734Z,89.53
2022-10-19T13:02:36.695Z,87.13
2022-10-19T13:05:08.030Z,88.30
2022-10-19T13:07:37.362Z,81.90
2022-10-19T13:10:18.985Z,86.80
2022-10-19T13:12:48.407Z,84.22
2022-10-19T13:15:37.493Z,94.50
2022-10-19T13:18:13.533Z,90.00
2022-10-19T13:20:50.332Z,92.63
2022-10-19T13:23:30.849Z,88.45
2022-10-19T13:26:32.355Z,86.20
2022-10-19T13:29:01.496Z,83.30
2022-10-19T13:31:33.068Z,85.78
2022-10-19T13:34:09.502Z,82.80
2022-10-19T13:36:40.283Z,81.78
2022-10-19T13:39:14.098Z,94.85
2022-10-19T13:41:48.085Z,83.28
2022-10-19T13:44:34.006Z,85.25
2022-10-19T13:47:39.489Z,88.78
2022-10-19T13:50:32.412Z,79.72
2022-10-19T13:53:32.383Z,86.03
2022-10-19T13:56:06.921Z,78.47
2022-10-19T13:58:53.172Z,80.40
2022-10-19T14:01:36.413Z,76.78
2022-10-19T14:07:08.254Z,82.90
2022-10-19T14:09:53.869Z,75.72
2022-10-19T14:12:25.822Z,84.25
2022-10-19T14:14:54.574Z,81.43
2022-10-19T14:17:30.281Z,83.63
2022-10-19T14:20:00.023Z,85.35
2022-10-19T14:22:34.162Z,84.65
2022-10-19T14:25:18.857Z,73.75
2022-10-19T14:27:50.504Z,70.85
2022-10-19T14:30:32.124Z,71.28
2022-10-19T14:33:06.627Z,68.95
2022-10-19T14:35:40.188Z,68.72
2022-10-19T14:38:15.719Z,76.57
2022-10-19T14:40:44.113Z,66.57
2022-10-19T14:43:26.998Z,70.57
2022-10-19T14:46:07.195Z,71.40
2022-10-19T14:48:40.611Z,69.35
2022-10-19T14:51:35.432Z,70.30
2022-10-19T14:54:03.830Z,78.13
2022-10-19T14:56:47.017Z,74.07
2022-10-19T14:59:31.861Z,75.30
2022-10-19T15:02:04.054Z,75.85
2022-10-19T15:04:37.059Z,76.32
2022-10-19T15:07:23.094Z,83.53
2022-10-19T15:09:56.486Z,70.00
2022-10-19T15:12:37.282Z,76.25
2022-10-19T15:15:15.501Z,73.82
2022-10-19T15:17:56.930Z,71.05
2022-10-19T15:20:32.485Z,71.28
2022-10-19T15:23:41.421Z,74.85
2022-10-19T15:26:28.896Z,73.28
2022-10-19T15:29:19.563Z,65.35
2022-10-19T15:31:47.905Z,66.10
2022-10-19T15:34:29.896Z,68.18
2022-10-19T15:37:00.683Z,69.32
2022-10-19T15:39:39.794Z,71.22
2022-10-19T15:42:45.567Z,77.90
2022-10-19T15:45:33.932Z,67.38
2022-10-19T15:48:11.185Z,69.30
2022-10-19T15:50:48.489Z,75.45
2022-10-19T15:53:18.233Z,79.55
2022-10-19T15:55:46.720Z,75.60
2022-10-19T15:58:15.193Z,71.82
2022-10-19T16:00:43.703Z,69.68
2022-10-19T16:03:11.929Z,62.65
2022-10-19T16:05:40.167Z,65.18
2022-10-19T16:08:11.730Z,72.78
2022-10-19T16:10:40.682Z,72.40
2022-10-19T16:13:08.830Z,73.03
2022-10-19T16:15:37.487Z,69.68
2022-10-19T16:18:05.671Z,67.00
2022-10-19T16:20:33.765Z,73.95
2022-10-19T16:23:04.594Z,67.55
2022-10-19T16:25:32.707Z,66.07
2022-10-19T16:28:00.938Z,71.63
2022-10-19T16:30:29.088Z,68.70
2022-10-19T16:32:57.262Z,75.15
2022-10-19T16:35:25.496Z,72.10
2022-10-19T16:37:53.695Z,70.35
2022-10-19T16:40:22.041Z,68.00
2022-10-19T16:42:50.179Z,69.75
2022-10-19T16:45:18.506Z,72.47
2022-10-19T16:47:50.438Z,72.88
2022-10-19T16:50:18.863Z,72.47
2022-10-19T16:52:47.589Z,72.03
2022-10-19T16:55:15.809Z,70.35
2022-10-19T16:57:43.876Z,80.25
2022-10-19T17:00:13.424Z,68.53
2022-10-19T17:02:44.325Z,69.55
2022-10-19T17:05:15.339Z,70.80
2022-10-19T17:07:44.062Z,73.55
2022-10-19T17:10:12.376Z,72.63
2022-10-19T17:12:43.826Z,77.47
2022-10-19T17:15:41.610Z,73.28
2022-10-19T17:18:04.496Z,73.88
2022-10-19T17:20:35.443Z,75.57
2022-10-19T17:23:03.680Z,78.32
2022-10-19T17:25:34.138Z,71.32
2022-10-19T17:28:04.667Z,80.20
2022-10-19T17:30:35.533Z,73.35
2022-10-19T17:33:03.803Z,74.03
2022-10-19T17:35:35.784Z,77.05
2022-10-19T17:38:06.627Z,78.95
2022-10-19T17:40:38.211Z,72.13
2022-10-19T17:43:06.358Z,76.03
2022-10-19T17:45:35.614Z,81.68
2022-10-19T17:48:08.376Z,77.05
2022-10-19T17:50:36.794Z,76.90
2022-10-19T17:53:04.944Z,77.60
2022-10-19T17:55:36.322Z,73.20
2022-10-19T17:58:04.969Z,71.93
2022-10-19T18:00:34.890Z,76.47
2022-10-19T18:03:03.176Z,68.57
2022-10-19T18:05:31.527Z,78.20
2022-10-19T18:07:59.755Z,78.80
2022-10-19T18:10:27.885Z,78.32
2022-10-19T18:12:56.539Z,77.05
2022-10-19T18:15:24.626Z,72.30
2022-10-19T18:17:52.746Z,75.18
2022-10-19T18:20:20.951Z,74.50
2022-10-19T18:22:49.148Z,82.90
2022-10-19T18:25:21.854Z,84.72
2022-10-19T18:27:58.903Z,82.00
2022-10-19T18:30:27.844Z,79.03
2022-10-19T18:32:56.129Z,85.00
2022-10-19T18:35:24.229Z,85.18
2022-10-19T18:37:52.359Z,90.95
2022-10-19T18:40:20.512Z,86.40
2022-10-19T18:42:48.869Z,90.15
2022-10-19T18:45:18.498Z,94.70
2022-10-19T18:47:46.664Z,88.30
2022-10-19T18:50:17.618Z,89.13
2022-10-19T18:52:45.878Z,84.22
2022-10-19T18:55:14.248Z,73.55
2022-10-19T18:57:42.444Z,76.05
2022-10-19T19:00:11.267Z,71.28
2022-10-19T19:02:46.571Z,72.78
2022-10-19T19:05:15.608Z,65.70
2022-10-19T19:07:44.609Z,62.97
2022-10-19T19:10:14.494Z,69.57
2022-10-19T19:12:44.404Z,64.05
2022-10-19T19:15:12.890Z,66.03
2022-10-19T19:17:41.613Z,62.40
2022-10-19T19:20:10.668Z,60.08
2022-10-19T19:22:38.912Z,66.78
2022-10-19T19:25:07.512Z,61.72
2022-10-19T19:27:35.764Z,57.70
2022-10-19T19:30:04.849Z,57.60
2022-10-19T19:32:34.749Z,52.05
2022-10-19T19:35:04.017Z,53.60
2022-10-19T19:37:32.969Z,61.50
2022-10-19T19:40:01.833Z,54.20
2022-10-19T19:42:30.086Z,51.60
2022-10-19T19:44:58.901Z,47.80
2022-10-19T19:47:27.239Z,45.38
2022-10-19T19:49:55.392Z,46.92
2022-10-19T19:52:23.550Z,52.38
2022-10-19T19:54:51.804Z,44.05
2022-10-19T19:57:20.128Z,51.13
2022-10-19T19:59:48.298Z,41.83
2022-10-19T20:02:16.711Z,44.13
2022-10-19T20:04:44.837Z,40.60
2022-10-19T20:07:12.973Z,42.85
2022-10-19T20:09:41.190Z,39.90
2022-10-19T20:12:10.640Z,42.55
2022-10-19T20:14:41.798Z,36.97
2022-10-19T20:17:09.992Z,40.00
2022-10-19T20:19:39.700Z,37.67
2022-10-19T20:22:07.963Z,37.30
2022-10-19T20:24:37.707Z,38.75
2022-10-19T20:27:06.002Z,43.47
2022-10-19T20:29:35.367Z,52.28
2022-10-19T20:32:04.704Z,48.47
2022-10-19T20:34:35.160Z,59.03
2022-10-19T20:37:03.403Z,67.93
2022-10-19T20:39:31.604Z,71.00
2022-10-19T20:41:59.735Z,65.55
2022-10-19T20:44:27.911Z,66.40
2022-10-19T20:46:56.089Z,70.97
2022-10-19T20:49:24.274Z,69.25
2022-10-19T20:51:54.378Z,64.05
2022-10-19T20:54:22.627Z,65.15
2022-10-19T20:56:51.805Z,65.25
2022-10-19T20:59:22.684Z,59.08
2022-10-19T21:01:52.488Z,61.63
2022-10-19T21:04:20.675Z,51.38
2022-10-19T21:06:52.690Z,50.13
2022-10-19T21:09:23.106Z,48.42
2022-10-19T21:11:52.532Z,45.30
2022-10-19T21:14:27.210Z,39.72
2022-10-19T21:17:03.317Z,38.63
2022-10-19T21:19:31.617Z,47.33
2022-10-19T21:22:02.497Z,44.10
2022-10-19T21:24:36.040Z,44.08
2022-10-19T21:27:07.540Z,45.08
2022-10-19T21:29:36.623Z,38.67
2022-10-19T21:32:05.458Z,43.28
2022-10-19T21:34:33.765Z,44.03
2022-10-19T21:37:02.086Z,41.47
2022-10-19T21:39:30.289Z,44.97
2022-10-19T21:41:58.620Z,41.28
2022-10-19T21:44:26.845Z,38.97
2022-10-19T21:46:55.023Z,45.75
2022-10-19T21:49:25.760Z,45.08
2022-10-19T21:51:55.128Z,51.22
2022-10-19T21:54:25.269Z,43.88
2022-10-19T21:56:55.735Z,53.30
2022-10-19T21:59:24.609Z,49.33
2022-10-19T22:01:54.706Z,46.22
2022-10-19T22:04:23.655Z,44.80
2022-10-19T22:06:51.948Z,47.70
2022-10-19T22:09:21.896Z,47.80
2022-10-19T22:11:50.271Z,53.70
2022-10-19T22:14:18.735Z,54.42
2022-10-19T22:16:47.123Z,50.80
2022-10-19T22:19:15.634Z,48.15
2022-10-19T22:21:43.810Z,53.72
2022-10-19T22:24:16.111Z,64.45
2022-10-19T22:26:50.710Z,63.55
2022-10-19T22:29:19.554Z,59.58
2022-10-19T22:31:47.714Z,64.50
2022-10-19T22:34:17.275Z,65.65
2022-10-19T22:36:46.924Z,67.30
2022-10-19T22:39:15.575Z,66.82
2022-10-19T22:41:43.779Z,59.88
2022-10-19T22:44:11.973Z,61.75
2022-10-19T22:46:40.152Z,63.75
2022-10-19T22:51:37.290Z,69.30
2022-10-19T22:54:05.583Z,62.50
2022-10-19T22:56:33.769Z,63.30
2022-10-19T22:59:04.349Z,63.05
2022-10-19T23:01:33.358Z,57.97
2022-10-19T23:04:03.812Z,62.38
2022-10-19T23:06:32.048Z,62.88
2022-10-19T23:09:00.454Z,65.63
2022-10-19T23:11:28.871Z,56.78
2022-10-19T23:13:57.066Z,56.67
2022-10-19T23:16:25.287Z,58.88
2022-10-19T23:18:53.524Z,61.05
2022-10-19T23:21:22.080Z,54.20
2022-10-19T23:23:50.237Z,56.60
2022-10-19T23:26:20.323Z,60.05
2022-10-19T23:28:50.045Z,53.47
2022-10-19T23:31:26.844Z,51.10
2022-10-19T23:33:55.239Z,54.53
2022-10-19T23:36:27.008Z,53.67
2022-10-19T23:38:56.827Z,61.90
2022-10-19T23:41:25.663Z,55.15
2022-10-19T23:43:53.972Z,59.53
2022-10-19T23:46:22.200Z,54.45
2022-10-19T23:48:50.355Z,59.28
2022-10-19T23:51:21.216Z,49.92
2022-10-19T23:53:51.233Z,54.75
2022-10-19T23:56:24.119Z,55.53
2022-10-19T23:58:52.946Z,56.13
